sensor_id;sensor_type;location;lat;lon;timestamp;pressure;altitude;pressure_sealevel;temperature;humidity
39823;BME280;25499;53.958;10.970;2023-03-13T08:28:06;99191.97;;;7.31;100.00
39823;BME280;25499;53.958;10.970;2023-03-13T08:30:33;99203.06;;;7.39;100.00
39823;BME280;25499;53.958;10.970;2023-03-13T08:32:58;99193.63;;;7.38;100.00
39823;BME280;25499;53.958;10.970;2023-03-13T08:35:24;99204.69;;;7.46;100.00
39823;BME280;25499;53.958;10.970;2023-03-13T08:37:49;99183.03;;;7.54;100.00
39823;BME280;25499;53.958;10.970;2023-03-13T08:40:16;99186.44;;;7.56;100.00
39823;BME280;25499;53.958;10.970;2023-03-13T08:42:41;99180.28;;;7.61;100.00
39823;BME280;25499;53.958;10.970;2023-03-13T08:45:07;99173.38;;;7.62;100.00
39823;BME280;25499;53.958;10.970;2023-03-13T08:47:33;99159.41;;;7.72;100.00
39823;BME280;25499;53.958;10.970;2023-03-13T08:49:58;99168.72;;;7.82;100.00
39823;BME280;25499;53.958;10.970;2023-03-13T08:52:24;99163.47;;;7.84;100.00
39823;BME280;25499;53.958;10.970;2023-03-13T08:54:50;99159.03;;;7.91;100.00
39823;BME280;25499;53.958;10.970;2023-03-13T08:57:15;99161.50;;;8.00;100.00
39823;BME280;25499;53.958;10.970;2023-03-13T08:59:42;99157.13;;;8.02;100.00
39823;BME280;25499;53.958;10.970;2023-03-13T09:02:08;99150.94;;;8.09;100.00
39823;BME280;25499;53.958;10.970;2023-03-13T09:04:34;99156.13;;;8.09;100.00
39823;BME280;25499;53.958;10.970;2023-03-13T09:06:59;99142.19;;;8.16;100.00
39823;BME280;25499;53.958;10.970;2023-03-13T09:09:24;99136.19;;;8.13;100.00
39823;BME280;25499;53.958;10.970;2023-03-13T09:11:51;99131.72;;;8.19;100.00
39823;BME280;25499;53.958;10.970;2023-03-13T09:14:16;99119.63;;;8.21;100.00
39823;BME280;25499;53.958;10.970;2023-03-13T09:16:42;99123.03;;;8.24;100.00
39823;BME280;25499;53.958;10.970;2023-03-13T09:19:10;99128.97;;;8.29;100.00
39823;BME280;25499;53.958;10.970;2023-03-13T09:21:36;99116.81;;;8.31;100.00
39823;BME280;25499;53.958;10.970;2023-03-13T09:24:01;99118.53;;;8.32;100.00
39823;BME280;25499;53.958;10.970;2023-03-13T09:26:27;99112.28;;;8.44;100.00
39823;BME280;25499;53.958;10.970;2023-03-13T09:28:53;99117.50;;;8.40;100.00
39823;BME280;25499;53.958;10.970;2023-03-13T09:31:21;99109.50;;;8.51;100.00
39823;BME280;25499;53.958;10.970;2023-03-13T09:33:49;99098.22;;;8.54;100.00
39823;BME280;25499;53.958;10.970;2023-03-13T09:36:15;99097.16;;;8.63;100.00
39823;BME280;25499;53.958;10.970;2023-03-13T09:38:41;99092.66;;;8.71;100.00
39823;BME280;25499;53.958;10.970;2023-03-13T09:49:49;99094.00;;;8.87;100.00
39823;BME280;25499;53.958;10.970;2023-03-13T09:52:25;99091.25;;;8.95;100.00
39823;BME280;25499;53.958;10.970;2023-03-13T09:57:41;99092.78;;;9.02;100.00
39823;BME280;25499;53.958;10.970;2023-03-13T10:00:23;99091.78;;;9.08;100.00
39823;BME280;25499;53.958;10.970;2023-03-13T10:05:25;99099.75;;;9.36;100.00
39823;BME280;25499;53.958;10.970;2023-03-13T10:07:55;99105.56;;;9.47;100.00
39823;BME280;25499;53.958;10.970;2023-03-13T10:13:23;99112.66;;;9.74;100.00
39823;BME280;25499;53.958;10.970;2023-03-13T10:15:55;99094.25;;;9.83;100.00
39823;BME280;25499;53.958;10.970;2023-03-13T10:18:23;99095.84;;;9.87;100.00
39823;BME280;25499;53.958;10.970;2023-03-13T10:20:51;99102.63;;;9.93;100.00
39823;BME280;25499;53.958;10.970;2023-03-13T10:26:15;99095.78;;;10.20;100.00
39823;BME280;25499;53.958;10.970;2023-03-13T10:28:44;99089.59;;;10.25;100.00
39823;BME280;25499;53.958;10.970;2023-03-13T10:31:22;99082.50;;;10.31;100.00
39823;BME280;25499;53.958;10.970;2023-03-13T10:33:51;99092.94;;;10.29;100.00
39823;BME280;25499;53.958;10.970;2023-03-13T10:36:17;99090.09;;;10.38;100.00
39823;BME280;25499;53.958;10.970;2023-03-13T10:38:49;99093.56;;;10.39;100.00
39823;BME280;25499;53.958;10.970;2023-03-13T10:41:32;99093.31;;;10.47;100.00
39823;BME280;25499;53.958;10.970;2023-03-13T10:44:03;99079.56;;;10.43;100.00
39823;BME280;25499;53.958;10.970;2023-03-13T10:46:31;99081.00;;;10.53;100.00
39823;BME280;25499;53.958;10.970;2023-03-13T10:49:00;99083.59;;;10.53;100.00
39823;BME280;25499;53.958;10.970;2023-03-13T10:51:35;99065.19;;;10.59;100.00
39823;BME280;25499;53.958;10.970;2023-03-13T10:54:13;99073.56;;;10.69;100.00
39823;BME280;25499;53.958;10.970;2023-03-13T10:56:39;99073.47;;;10.72;100.00
39823;BME280;25499;53.958;10.970;2023-03-13T10:59:18;99071.31;;;10.87;100.00
39823;BME280;25499;53.958;10.970;2023-03-13T11:01:46;99046.91;;;10.89;100.00
39823;BME280;25499;53.958;10.970;2023-03-13T11:07:00;99040.25;;;11.34;100.00
39823;BME280;25499;53.958;10.970;2023-03-13T11:09:25;99036.13;;;11.52;100.00
39823;BME280;25499;53.958;10.970;2023-03-13T11:11:54;99021.66;;;11.68;100.00
39823;BME280;25499;53.958;10.970;2023-03-13T11:14:22;99015.38;;;11.74;100.00
39823;BME280;25499;53.958;10.970;2023-03-13T11:16:54;99006.91;;;11.67;100.00
39823;BME280;25499;53.958;10.970;2023-03-13T11:24:43;98999.09;;;12.38;100.00
39823;BME280;25499;53.958;10.970;2023-03-13T11:27:35;98979.00;;;12.62;100.00
39823;BME280;25499;53.958;10.970;2023-03-13T11:33:00;98967.56;;;13.49;100.00
39823;BME280;25499;53.958;10.970;2023-03-13T11:35:47;98955.78;;;13.59;100.00
39823;BME280;25499;53.958;10.970;2023-03-13T11:38:38;98943.00;;;13.32;100.00
39823;BME280;25499;53.958;10.970;2023-03-13T11:44:35;98943.78;;;12.93;100.00
39823;BME280;25499;53.958;10.970;2023-03-13T11:52:35;98929.88;;;13.34;100.00
39823;BME280;25499;53.958;10.970;2023-03-13T11:55:27;98938.94;;;13.46;100.00
39823;BME280;25499;53.958;10.970;2023-03-13T12:00:35;98930.25;;;14.94;100.00
39823;BME280;25499;53.958;10.970;2023-03-13T12:03:25;98933.00;;;15.08;100.00
39823;BME280;25499;53.958;10.970;2023-03-13T12:05:57;98913.69;;;14.94;100.00
39823;BME280;25499;53.958;10.970;2023-03-13T12:08:41;98904.78;;;15.96;98.44
39823;BME280;25499;53.958;10.970;2023-03-13T12:11:32;98884.06;;;15.09;95.72
39823;BME280;25499;53.958;10.970;2023-03-13T12:14:10;98901.19;;;15.65;95.57
39823;BME280;25499;53.958;10.970;2023-03-13T12:19:14;98894.66;;;15.73;93.09
39823;BME280;25499;53.958;10.970;2023-03-13T12:21:50;98888.47;;;14.73;93.39
39823;BME280;25499;53.958;10.970;2023-03-13T12:24:38;98904.53;;;14.48;94.53
39823;BME280;25499;53.958;10.970;2023-03-13T12:27:21;98918.13;;;14.74;96.04
39823;BME280;25499;53.958;10.970;2023-03-13T12:29:52;98905.50;;;14.65;93.63
39823;BME280;25499;53.958;10.970;2023-03-13T12:32:37;98898.53;;;15.16;93.46
39823;BME280;25499;53.958;10.970;2023-03-13T12:40:40;98842.06;;;15.26;85.96
39823;BME280;25499;53.958;10.970;2023-03-13T12:43:17;98854.56;;;15.55;85.25
39823;BME280;25499;53.958;10.970;2023-03-13T12:59:24;98911.19;;;13.22;96.18
39823;BME280;25499;53.958;10.970;2023-03-13T13:01:53;98909.03;;;13.91;95.54
39823;BME280;25499;53.958;10.970;2023-03-13T13:04:22;98907.44;;;13.68;94.81
39823;BME280;25499;53.958;10.970;2023-03-13T13:07:05;98901.19;;;13.53;96.52
39823;BME280;25499;53.958;10.970;2023-03-13T13:09:34;98895.50;;;13.43;95.99
39823;BME280;25499;53.958;10.970;2023-03-13T13:12:02;98912.50;;;14.28;95.82
39823;BME280;25499;53.958;10.970;2023-03-13T13:17:21;98846.22;;;14.45;89.15
39823;BME280;25499;53.958;10.970;2023-03-13T13:19:49;98864.53;;;14.27;89.24
39823;BME280;25499;53.958;10.970;2023-03-13T13:37:37;98830.28;;;14.14;84.37
39823;BME280;25499;53.958;10.970;2023-03-13T13:42:54;98841.97;;;14.25;85.98
39823;BME280;25499;53.958;10.970;2023-03-13T13:45:30;98818.28;;;14.45;84.87
39823;BME280;25499;53.958;10.970;2023-03-13T13:48:25;98820.47;;;14.01;84.44
39823;BME280;25499;53.958;10.970;2023-03-13T14:01:39;98768.84;;;14.22;81.26
39823;BME280;25499;53.958;10.970;2023-03-13T14:04:16;98745.34;;;14.20;79.53
39823;BME280;25499;53.958;10.970;2023-03-13T14:06:47;98742.38;;;14.28;79.18
39823;BME280;25499;53.958;10.970;2023-03-13T14:11:47;98739.31;;;14.70;77.87
39823;BME280;25499;53.958;10.970;2023-03-13T14:14:18;98741.28;;;14.49;78.36
39823;BME280;25499;53.958;10.970;2023-03-13T14:16:53;98750.72;;;14.69;78.64
39823;BME280;25499;53.958;10.970;2023-03-13T14:19:41;98737.78;;;14.49;78.58
39823;BME280;25499;53.958;10.970;2023-03-13T14:22:09;98708.72;;;14.38;77.53
39823;BME280;25499;53.958;10.970;2023-03-13T14:24:36;98690.72;;;14.47;76.46
39823;BME280;25499;53.958;10.970;2023-03-13T14:27:14;98695.53;;;14.39;76.23
39823;BME280;25499;53.958;10.970;2023-03-13T14:29:40;98697.19;;;14.24;76.74
39823;BME280;25499;53.958;10.970;2023-03-13T14:32:06;98692.34;;;14.16;77.43
39823;BME280;25499;53.958;10.970;2023-03-13T14:34:31;98712.28;;;14.19;77.63
39823;BME280;25499;53.958;10.970;2023-03-13T14:36:58;98716.34;;;14.25;77.81
39823;BME280;25499;53.958;10.970;2023-03-13T14:42:01;98663.09;;;14.59;75.17
39823;BME280;25499;53.958;10.970;2023-03-13T14:44:30;98644.50;;;14.64;74.10
39823;BME280;25499;53.958;10.970;2023-03-13T14:47:00;98641.13;;;14.62;73.27
39823;BME280;25499;53.958;10.970;2023-03-13T14:49:28;98636.06;;;14.74;72.59
39823;BME280;25499;53.958;10.970;2023-03-13T14:52:01;98648.50;;;15.03;72.72
39823;BME280;25499;53.958;10.970;2023-03-13T14:54:32;98622.03;;;14.91;71.31
39823;BME280;25499;53.958;10.970;2023-03-13T14:59:34;98631.75;;;14.89;72.54
39823;BME280;25499;53.958;10.970;2023-03-13T15:02:13;98627.53;;;14.71;72.28
39823;BME280;25499;53.958;10.970;2023-03-13T15:04:59;98631.59;;;14.77;72.03
39823;BME280;25499;53.958;10.970;2023-03-13T15:07:37;98655.28;;;14.75;72.92
39823;BME280;25499;53.958;10.970;2023-03-13T15:10:18;98616.81;;;14.76;71.61
39823;BME280;25499;53.958;10.970;2023-03-13T15:12:44;98607.00;;;14.79;71.65
39823;BME280;25499;53.958;10.970;2023-03-13T15:15:10;98596.44;;;14.65;71.80
39823;BME280;25499;53.958;10.970;2023-03-13T15:17:35;98600.22;;;14.59;70.98
39823;BME280;25499;53.958;10.970;2023-03-13T15:20:03;98609.13;;;14.72;71.55
39823;BME280;25499;53.958;10.970;2023-03-13T15:22:38;98583.19;;;14.84;70.36
39823;BME280;25499;53.958;10.970;2023-03-13T15:27:38;98590.78;;;14.88;70.26
39823;BME280;25499;53.958;10.970;2023-03-13T15:30:04;98573.56;;;14.68;70.24
39823;BME280;25499;53.958;10.970;2023-03-13T15:32:35;98567.44;;;14.68;70.47
39823;BME280;25499;53.958;10.970;2023-03-13T15:35:15;98563.72;;;14.88;69.84
39823;BME280;25499;53.958;10.970;2023-03-13T15:37:42;98539.44;;;15.30;68.60
39823;BME280;25499;53.958;10.970;2023-03-13T15:40:15;98534.94;;;15.18;68.12
39823;BME280;25499;53.958;10.970;2023-03-13T15:42:41;98542.22;;;15.13;68.23
39823;BME280;25499;53.958;10.970;2023-03-13T15:45:07;98538.09;;;14.93;67.97
39823;BME280;25499;53.958;10.970;2023-03-13T15:47:33;98558.22;;;14.92;69.61
39823;BME280;25499;53.958;10.970;2023-03-13T15:49:58;98543.53;;;14.74;69.30
39823;BME280;25499;53.958;10.970;2023-03-13T15:52:23;98542.66;;;14.58;69.58
39823;BME280;25499;53.958;10.970;2023-03-13T15:54:50;98555.16;;;14.52;70.08
39823;BME280;25499;53.958;10.970;2023-03-13T15:57:25;98544.09;;;14.47;70.46
39823;BME280;25499;53.958;10.970;2023-03-13T15:59:52;98542.44;;;14.46;70.14
39823;BME280;25499;53.958;10.970;2023-03-13T16:02:20;98562.94;;;14.38;70.40
39823;BME280;25499;53.958;10.970;2023-03-13T16:04:46;98560.50;;;14.35;70.59
39823;BME280;25499;53.958;10.970;2023-03-13T16:07:14;98559.66;;;14.34;71.63
39823;BME280;25499;53.958;10.970;2023-03-13T16:09:41;98534.66;;;14.45;71.01
39823;BME280;25499;53.958;10.970;2023-03-13T16:12:07;98519.97;;;14.42;70.14
39823;BME280;25499;53.958;10.970;2023-03-13T16:14:33;98525.88;;;14.46;70.22
39823;BME280;25499;53.958;10.970;2023-03-13T16:16:59;98504.25;;;14.42;69.48
39823;BME280;25499;53.958;10.970;2023-03-13T16:19:26;98501.19;;;14.34;69.53
39823;BME280;25499;53.958;10.970;2023-03-13T16:21:52;98515.25;;;14.33;69.87
39823;BME280;25499;53.958;10.970;2023-03-13T16:24:18;98522.16;;;14.18;70.69
39823;BME280;25499;53.958;10.970;2023-03-13T16:26:45;98537.94;;;14.16;71.07
39823;BME280;25499;53.958;10.970;2023-03-13T16:29:12;98515.22;;;14.17;71.13
39823;BME280;25499;53.958;10.970;2023-03-13T16:31:38;98518.69;;;14.17;70.83
39823;BME280;25499;53.958;10.970;2023-03-13T16:34:03;98521.97;;;14.21;71.30
39823;BME280;25499;53.958;10.970;2023-03-13T16:36:30;98531.03;;;14.15;71.76
39823;BME280;25499;53.958;10.970;2023-03-13T16:38:57;98530.22;;;14.13;72.02
39823;BME280;25499;53.958;10.970;2023-03-13T16:41:25;98509.81;;;14.04;71.61
39823;BME280;25499;53.958;10.970;2023-03-13T16:43:51;98523.56;;;13.92;72.23
39823;BME280;25499;53.958;10.970;2023-03-13T16:46:22;98518.25;;;13.93;72.46
39823;BME280;25499;53.958;10.970;2023-03-13T16:48:48;98529.38;;;13.97;72.77
39823;BME280;25499;53.958;10.970;2023-03-13T16:51:20;98543.53;;;13.93;73.24
39823;BME280;25499;53.958;10.970;2023-03-13T16:53:47;98508.47;;;13.97;73.06
39823;BME280;25499;53.958;10.970;2023-03-13T16:56:17;98526.84;;;13.95;73.36
39823;BME280;25499;53.958;10.970;2023-03-13T16:58:45;98530.47;;;13.93;73.77
39823;BME280;25499;53.958;10.970;2023-03-13T17:01:11;98516.03;;;13.86;73.56
39823;BME280;25499;53.958;10.970;2023-03-13T17:03:36;98534.41;;;13.84;74.24
39823;BME280;25499;53.958;10.970;2023-03-13T17:06:02;98522.00;;;13.88;74.30
39823;BME280;25499;53.958;10.970;2023-03-13T17:08:28;98528.34;;;13.84;73.98
39823;BME280;25499;53.958;10.970;2023-03-13T17:10:53;98530.81;;;13.87;74.34
39823;BME280;25499;53.958;10.970;2023-03-13T17:13:19;98523.25;;;13.80;74.08
39823;BME280;25499;53.958;10.970;2023-03-13T17:15:47;98535.75;;;13.75;74.52
39823;BME280;25499;53.958;10.970;2023-03-13T17:18:12;98521.41;;;13.83;73.68
39823;BME280;25499;53.958;10.970;2023-03-13T17:20:38;98514.66;;;13.78;73.07
39823;BME280;25499;53.958;10.970;2023-03-13T17:23:03;98505.41;;;13.89;72.57
39823;BME280;25499;53.958;10.970;2023-03-13T17:25:28;98492.63;;;13.83;72.17
39823;BME280;25499;53.958;10.970;2023-03-13T17:27:54;98481.50;;;13.79;71.79
39823;BME280;25499;53.958;10.970;2023-03-13T17:30:26;98490.19;;;13.79;72.12
39823;BME280;25499;53.958;10.970;2023-03-13T17:32:52;98483.34;;;13.77;71.49
39823;BME280;25499;53.958;10.970;2023-03-13T17:35:19;98490.59;;;13.72;71.69
39823;BME280;25499;53.958;10.970;2023-03-13T17:37:45;98475.22;;;13.66;71.23
39823;BME280;25499;53.958;10.970;2023-03-13T17:40:22;98496.91;;;13.68;71.21
39823;BME280;25499;53.958;10.970;2023-03-13T17:42:48;98479.47;;;13.68;70.99
39823;BME280;25499;53.958;10.970;2023-03-13T17:45:14;98477.00;;;13.65;70.68
39823;BME280;25499;53.958;10.970;2023-03-13T17:47:40;98482.38;;;13.62;70.79
39823;BME280;25499;53.958;10.970;2023-03-13T17:50:26;98492.13;;;13.42;71.42
39823;BME280;25499;53.958;10.970;2023-03-13T17:52:53;98502.81;;;13.38;71.83
39823;BME280;25499;53.958;10.970;2023-03-13T17:55:19;98503.72;;;13.37;72.17
39823;BME280;25499;53.958;10.970;2023-03-13T17:57:44;98512.66;;;13.33;72.66
39823;BME280;25499;53.958;10.970;2023-03-13T18:02:46;98532.75;;;13.31;73.21
39823;BME280;25499;53.958;10.970;2023-03-13T18:05:11;98539.69;;;13.32;74.37
39823;BME280;25499;53.958;10.970;2023-03-13T18:07:36;98525.75;;;13.31;73.60
39823;BME280;25499;53.958;10.970;2023-03-13T18:10:15;98534.91;;;13.22;74.17
39823;BME280;25499;53.958;10.970;2023-03-13T18:12:40;98535.88;;;13.20;74.67
39823;BME280;25499;53.958;10.970;2023-03-13T18:15:06;98528.91;;;13.20;74.74
39823;BME280;25499;53.958;10.970;2023-03-13T18:17:32;98556.19;;;13.15;75.25
39823;BME280;25499;53.958;10.970;2023-03-13T18:19:57;98550.34;;;13.10;75.71
39823;BME280;25499;53.958;10.970;2023-03-13T18:22:22;98550.94;;;13.15;75.75
39823;BME280;25499;53.958;10.970;2023-03-13T18:24:50;98551.16;;;13.10;75.89
39823;BME280;25499;53.958;10.970;2023-03-13T18:27:18;98539.75;;;13.13;75.83
39823;BME280;25499;53.958;10.970;2023-03-13T18:29:46;98543.72;;;13.20;76.12
39823;BME280;25499;53.958;10.970;2023-03-13T18:32:14;98538.97;;;13.11;76.09
39823;BME280;25499;53.958;10.970;2023-03-13T18:34:41;98553.28;;;13.03;76.63
39823;BME280;25499;53.958;10.970;2023-03-13T18:37:26;98565.91;;;12.94;77.65
39823;BME280;25499;53.958;10.970;2023-03-13T18:39:52;98588.41;;;12.96;79.19
39823;BME280;25499;53.958;10.970;2023-03-13T18:42:20;98604.53;;;12.87;80.75
39823;BME280;25499;53.958;10.970;2023-03-13T18:44:46;98603.97;;;12.80;81.37
39823;BME280;25499;53.958;10.970;2023-03-13T18:47:14;98586.69;;;12.78;80.32
39823;BME280;25499;53.958;10.970;2023-03-13T18:49:40;98586.84;;;12.75;79.66
39823;BME280;25499;53.958;10.970;2023-03-13T18:52:06;98575.03;;;12.66;79.62
39823;BME280;25499;53.958;10.970;2023-03-13T18:54:32;98571.53;;;12.67;79.81
39823;BME280;25499;53.958;10.970;2023-03-13T18:56:58;98584.09;;;12.59;79.90
39823;BME280;25499;53.958;10.970;2023-03-13T18:59:23;98587.22;;;12.48;80.83
39823;BME280;25499;53.958;10.970;2023-03-13T19:01:50;98596.81;;;12.47;81.27
39823;BME280;25499;53.958;10.970;2023-03-13T19:04:17;98597.28;;;12.37;81.02
39823;BME280;25499;53.958;10.970;2023-03-13T19:06:43;98604.13;;;12.39;81.39
39823;BME280;25499;53.958;10.970;2023-03-13T19:09:18;98594.22;;;12.27;80.90
39823;BME280;25499;53.958;10.970;2023-03-13T19:11:44;98607.22;;;12.28;80.96
39823;BME280;25499;53.958;10.970;2023-03-13T19:14:11;98600.44;;;12.24;81.45
39823;BME280;25499;53.958;10.970;2023-03-13T19:16:48;98610.31;;;12.18;81.55
39823;BME280;25499;53.958;10.970;2023-03-13T19:19:18;98603.56;;;12.13;81.58
39823;BME280;25499;53.958;10.970;2023-03-13T19:21:48;98599.03;;;12.17;81.73
39823;BME280;25499;53.958;10.970;2023-03-13T19:24:14;98596.06;;;12.06;81.13
39823;BME280;25499;53.958;10.970;2023-03-13T19:26:42;98598.16;;;11.98;81.71
39823;BME280;25499;53.958;10.970;2023-03-13T19:29:14;98601.88;;;11.92;81.96
39823;BME280;25499;53.958;10.970;2023-03-13T19:31:39;98611.69;;;11.85;82.02
39823;BME280;25499;53.958;10.970;2023-03-13T19:34:05;98612.00;;;11.77;82.33
39823;BME280;25499;53.958;10.970;2023-03-13T19:36:34;98612.00;;;11.77;82.98
39823;BME280;25499;53.958;10.970;2023-03-13T19:39:02;98626.56;;;11.83;82.72
39823;BME280;25499;53.958;10.970;2023-03-13T19:41:28;98623.09;;;11.83;82.88
39823;BME280;25499;53.958;10.970;2023-03-13T19:43:53;98619.13;;;11.74;82.57
39823;BME280;25499;53.958;10.970;2023-03-13T19:46:24;98626.09;;;11.73;83.17
39823;BME280;25499;53.958;10.970;2023-03-13T19:48:52;98632.28;;;11.71;83.06
39823;BME280;25499;53.958;10.970;2023-03-13T19:51:17;98630.19;;;11.58;83.38
39823;BME280;25499;53.958;10.970;2023-03-13T19:53:43;98631.63;;;11.66;83.25
39823;BME280;25499;53.958;10.970;2023-03-13T19:56:17;98630.97;;;11.61;83.24
39823;BME280;25499;53.958;10.970;2023-03-13T19:58:45;98626.88;;;11.55;83.44
39823;BME280;25499;53.958;10.970;2023-03-13T20:01:10;98619.03;;;11.55;83.76
39823;BME280;25499;53.958;10.970;2023-03-13T20:03:37;98616.31;;;11.58;82.98
39823;BME280;25499;53.958;10.970;2023-03-13T20:06:03;98612.88;;;11.57;82.12
39823;BME280;25499;53.958;10.970;2023-03-13T20:08:29;98606.25;;;11.49;81.88
39823;BME280;25499;53.958;10.970;2023-03-13T20:10:54;98603.47;;;11.53;81.42
39823;BME280;25499;53.958;10.970;2023-03-13T20:13:19;98614.66;;;11.55;81.76
39823;BME280;25499;53.958;10.970;2023-03-13T20:15:45;98618.28;;;11.53;81.65
39823;BME280;25499;53.958;10.970;2023-03-13T20:18:10;98615.47;;;11.57;81.42
39823;BME280;25499;53.958;10.970;2023-03-13T20:20:36;98595.59;;;11.55;81.05
39823;BME280;25499;53.958;10.970;2023-03-13T20:23:01;98600.03;;;11.53;80.59
39823;BME280;25499;53.958;10.970;2023-03-13T20:25:26;98580.94;;;11.52;79.68
39823;BME280;25499;53.958;10.970;2023-03-13T20:27:53;98587.47;;;11.63;79.22
39823;BME280;25499;53.958;10.970;2023-03-13T20:30:18;98582.44;;;11.58;79.34
39823;BME280;25499;53.958;10.970;2023-03-13T20:32:44;98592.47;;;11.47;79.60
39823;BME280;25499;53.958;10.970;2023-03-13T20:35:09;98586.00;;;11.55;79.98
39823;BME280;25499;53.958;10.970;2023-03-13T20:37:39;98576.22;;;11.61;79.43
39823;BME280;25499;53.958;10.970;2023-03-13T20:40:06;98566.69;;;11.61;79.66
39823;BME280;25499;53.958;10.970;2023-03-13T20:42:32;98565.56;;;11.46;79.89
39823;BME280;25499;53.958;10.970;2023-03-13T20:44:58;98549.09;;;11.46;79.54
39823;BME280;25499;53.958;10.970;2023-03-13T20:47:23;98551.22;;;11.56;79.61
39823;BME280;25499;53.958;10.970;2023-03-13T20:49:48;98534.59;;;11.59;78.88
39823;BME280;25499;53.958;10.970;2023-03-13T20:52:14;98535.59;;;11.56;78.53
39823;BME280;25499;53.958;10.970;2023-03-13T20:54:40;98544.72;;;11.46;78.80
39823;BME280;25499;53.958;10.970;2023-03-13T20:57:07;98548.34;;;11.42;78.68
39823;BME280;25499;53.958;10.970;2023-03-13T20:59:33;98538.31;;;11.33;79.28
39823;BME280;25499;53.958;10.970;2023-03-13T21:01:58;98536.44;;;11.36;79.15
39823;BME280;25499;53.958;10.970;2023-03-13T21:04:24;98541.00;;;11.31;79.71
39823;BME280;25499;53.958;10.970;2023-03-13T21:06:49;98533.53;;;11.24;79.44
39823;BME280;25499;53.958;10.970;2023-03-13T21:09:15;98536.03;;;11.25;79.74
39823;BME280;25499;53.958;10.970;2023-03-13T21:11:40;98525.34;;;11.11;79.85
39823;BME280;25499;53.958;10.970;2023-03-13T21:14:05;98517.72;;;11.06;79.97
39823;BME280;25499;53.958;10.970;2023-03-13T21:16:31;98502.16;;;11.05;79.93
39823;BME280;25499;53.958;10.970;2023-03-13T21:18:56;98515.84;;;11.10;80.14
39823;BME280;25499;53.958;10.970;2023-03-13T21:21:22;98509.38;;;10.98;79.90
39823;BME280;25499;53.958;10.970;2023-03-13T21:23:48;98520.34;;;11.06;80.41
